createdAt,value
2023-02-11T00:01:18.250Z,101608.38
2023-02-11T00:04:23.124Z,101580.34
2023-02-11T00:07:27.623Z,101592.00
2023-02-11T00:10:39.365Z,101581.34
2023-02-11T00:13:45.703Z,101578.66
2023-02-11T00:16:50.455Z,101574.69
2023-02-11T00:19:57.472Z,101593.34
2023-02-11T00:23:02.009Z,101574.38
2023-02-11T00:26:16.892Z,101551.84
2023-02-11T00:29:30.781Z,101545.94
2023-02-11T00:32:38.706Z,101582.44
2023-02-11T00:35:46.024Z,101557.69
2023-02-11T00:38:52.053Z,101578.31
2023-02-11T00:42:02.127Z,101544.78
2023-02-11T00:45:06.914Z,101525.97
2023-02-11T00:48:14.015Z,101547.03
2023-02-11T00:51:21.018Z,101565.13
2023-02-11T00:54:27.821Z,101525.28
2023-02-11T00:57:36.086Z,101502.91
2023-02-11T01:00:46.471Z,101529.56
2023-02-11T01:03:51.079Z,101550.03
2023-02-11T01:06:55.438Z,101533.28
2023-02-11T01:09:59.671Z,101521.44
2023-02-11T01:13:07.719Z,101536.88
2023-02-11T01:16:13.169Z,101516.72
2023-02-11T01:19:17.488Z,101504.13
2023-02-11T01:22:23.536Z,101484.50
2023-02-11T01:25:28.048Z,101534.00
2023-02-11T01:28:32.715Z,101488.16
2023-02-11T01:31:37.938Z,101501.41
2023-02-11T01:34:42.467Z,101530.44
2023-02-11T01:37:47.049Z,101546.53
2023-02-11T01:40:55.105Z,101546.28
2023-02-11T01:43:59.715Z,101551.03
2023-02-11T01:47:08.332Z,101512.66
2023-02-11T01:50:12.696Z,101515.38
2023-02-11T01:53:37.303Z,101500.56
2023-02-11T01:57:04.998Z,101527.91
2023-02-11T02:00:14.708Z,101538.03
2023-02-11T02:03:23.380Z,101518.78
2023-02-11T02:06:34.481Z,101541.50
2023-02-11T02:09:43.108Z,101539.13
2023-02-11T02:12:47.756Z,101533.38
2023-02-11T02:16:02.701Z,101544.03
2023-02-11T02:19:41.374Z,101532.22
2023-02-11T02:22:59.496Z,101528.16
2023-02-11T02:26:15.668Z,101508.16
2023-02-11T02:29:38.164Z,101530.25
2023-02-11T02:32:51.170Z,101519.31
2023-02-11T02:35:58.603Z,101517.06
2023-02-11T02:39:11.870Z,101517.75
2023-02-11T02:42:17.470Z,101451.44
2023-02-11T02:45:21.718Z,101521.50
2023-02-11T02:48:36.625Z,101519.75
2023-02-11T02:51:47.475Z,101514.94
2023-02-11T02:55:10.223Z,101522.72
2023-02-11T02:58:43.461Z,101524.31
2023-02-11T03:02:06.395Z,101508.59
2023-02-11T03:09:56.013Z,101501.97
2023-02-11T03:13:04.079Z,101509.34
2023-02-11T03:16:23.042Z,101454.53
2023-02-11T03:19:41.582Z,101514.31
2023-02-11T03:23:07.775Z,101504.69
2023-02-11T03:26:42.067Z,101504.28
2023-02-11T03:30:18.904Z,101482.56
2023-02-11T03:33:32.724Z,101489.84
2023-02-11T03:36:52.584Z,101490.50
2023-02-11T03:40:10.142Z,101496.47
2023-02-11T03:43:25.489Z,101485.44
2023-02-11T03:46:51.796Z,101480.78
2023-02-11T03:49:58.966Z,101474.03
2023-02-11T03:53:04.878Z,101484.91
2023-02-11T03:56:24.037Z,101461.31
2023-02-11T03:59:30.782Z,101478.31
2023-02-11T04:02:46.833Z,101477.13
2023-02-11T04:05:51.585Z,101478.25
2023-02-11T04:08:58.232Z,101452.84
2023-02-11T04:12:02.575Z,101484.41
2023-02-11T04:15:07.076Z,101463.38
2023-02-11T04:18:11.437Z,101454.34
2023-02-11T04:21:15.890Z,101462.38
2023-02-11T04:24:20.283Z,101460.09
2023-02-11T04:27:24.792Z,101443.75
2023-02-11T04:30:29.380Z,101460.00
2023-02-11T04:33:34.082Z,101450.84
2023-02-11T04:36:38.430Z,101449.03
2023-02-11T04:39:42.929Z,101438.78
2023-02-11T04:42:47.259Z,101448.97
2023-02-11T04:45:51.681Z,101451.69
2023-02-11T04:48:57.529Z,101425.69
2023-02-11T04:52:01.636Z,101451.19
2023-02-11T04:55:06.516Z,101447.72
2023-02-11T04:58:11.013Z,101434.06
2023-02-11T05:01:17.515Z,101457.66
2023-02-11T05:04:22.028Z,101423.69
2023-02-11T05:07:26.282Z,101431.78
2023-02-11T05:10:30.182Z,101431.31
2023-02-11T05:13:35.085Z,101448.25
2023-02-11T05:16:39.778Z,101444.22
2023-02-11T05:19:46.320Z,101360.13
2023-02-11T05:22:50.852Z,101444.53
2023-02-11T05:25:55.342Z,101444.13
2023-02-11T05:28:59.227Z,101439.84
2023-02-11T05:32:03.478Z,101448.56
2023-02-11T05:35:08.929Z,101417.41
2023-02-11T05:38:15.604Z,101404.22
2023-02-11T05:41:19.980Z,101409.84
2023-02-11T05:44:24.301Z,101425.94
2023-02-11T05:47:28.987Z,101440.53
2023-02-11T05:50:33.484Z,101438.44
2023-02-11T05:53:41.389Z,101431.03
2023-02-11T05:56:48.796Z,101439.63
2023-02-11T05:59:52.647Z,101440.38
2023-02-11T06:02:57.396Z,101388.16
2023-02-11T06:06:01.966Z,101410.41
2023-02-11T06:09:07.934Z,101431.25
2023-02-11T06:12:12.024Z,101436.63
2023-02-11T06:15:16.698Z,101378.97
2023-02-11T06:18:21.093Z,101421.91
2023-02-11T06:21:33.563Z,101403.50
2023-02-11T06:25:00.243Z,101399.03
2023-02-11T06:28:08.441Z,101426.09
2023-02-11T06:31:13.162Z,101436.84
2023-02-11T06:34:17.517Z,101428.28
2023-02-11T06:37:22.091Z,101363.09
2023-02-11T06:40:26.679Z,101428.13
2023-02-11T06:43:31.269Z,101435.53
2023-02-11T06:46:35.364Z,101411.19
2023-02-11T06:49:40.076Z,101391.06
2023-02-11T06:52:44.704Z,101412.66
2023-02-11T06:55:49.635Z,101409.50
2023-02-11T06:58:57.808Z,101367.66
2023-02-11T07:02:02.248Z,101394.94
2023-02-11T07:05:08.456Z,101387.88
2023-02-11T07:08:13.104Z,101424.41
2023-02-11T07:11:20.607Z,101433.72
2023-02-11T07:14:24.933Z,101373.53
2023-02-11T07:17:32.693Z,101399.91
2023-02-11T07:20:41.088Z,101421.56
2023-02-11T07:23:45.775Z,101426.88
2023-02-11T07:26:49.981Z,101431.78
2023-02-11T07:29:54.398Z,101434.16
2023-02-11T07:32:58.497Z,101434.75
2023-02-11T07:36:03.786Z,101395.28
2023-02-11T07:39:08.387Z,101401.16
2023-02-11T07:42:12.604Z,101397.59
2023-02-11T07:45:17.121Z,101386.91
2023-02-11T07:48:21.264Z,101434.25
2023-02-11T07:51:28.712Z,101427.88
2023-02-11T07:54:32.862Z,101427.97
2023-02-11T07:57:37.117Z,101433.38
2023-02-11T08:00:41.638Z,101365.19
2023-02-11T08:03:45.749Z,101405.63
2023-02-11T08:06:51.537Z,101388.69
2023-02-11T08:09:56.404Z,101353.13
2023-02-11T08:13:00.921Z,101421.91
2023-02-11T08:16:06.820Z,101431.91
2023-02-11T08:19:17.900Z,101435.22
2023-02-11T08:22:22.538Z,101429.72
2023-02-11T08:25:27.363Z,101420.31
2023-02-11T08:28:32.275Z,101428.84
2023-02-11T08:31:40.671Z,101395.84
2023-02-11T08:34:45.255Z,101434.50
2023-02-11T08:37:55.283Z,101428.00
2023-02-11T08:41:01.964Z,101397.13
2023-02-11T08:44:09.066Z,101386.88
2023-02-11T08:47:13.446Z,101414.25
2023-02-11T08:50:17.713Z,101432.31
2023-02-11T08:53:22.544Z,101392.22
2023-02-11T08:56:27.709Z,101416.31
2023-02-11T08:59:35.474Z,101366.78
2023-02-11T09:02:40.737Z,101394.44
2023-02-11T09:05:51.055Z,101425.44
2023-02-11T09:08:57.716Z,101441.13
2023-02-11T09:12:02.313Z,101412.06
2023-02-11T09:15:06.732Z,101362.34
2023-02-11T09:18:11.064Z,101434.13
2023-02-11T09:21:18.599Z,101434.81
2023-02-11T09:24:26.129Z,101431.34
2023-02-11T09:27:33.458Z,101414.06
2023-02-11T09:30:39.007Z,101380.31
2023-02-11T09:33:48.613Z,101396.22
2023-02-11T09:36:53.524Z,101435.34
2023-02-11T09:39:57.997Z,101239.09
2023-02-11T09:43:09.725Z,101431.69
2023-02-11T09:46:17.659Z,101386.00
2023-02-11T09:49:27.302Z,101442.00
2023-02-11T09:53:21.458Z,101449.22
2023-02-11T09:56:26.689Z,101456.91
2023-02-11T09:59:31.113Z,101422.75
2023-02-11T10:02:58.693Z,101445.19
2023-02-11T10:06:41.471Z,101438.50
2023-02-11T10:09:59.071Z,101441.25
2023-02-11T10:13:42.101Z,101452.34
2023-02-11T10:17:00.003Z,101442.34
2023-02-11T10:20:28.746Z,101438.56
2023-02-11T10:23:37.904Z,101444.81
2023-02-11T10:26:43.038Z,101375.72
2023-02-11T10:30:03.644Z,101438.97
2023-02-11T10:33:24.313Z,101435.00
2023-02-11T10:36:35.464Z,101436.50
2023-02-11T10:39:40.772Z,101368.97
2023-02-11T10:42:55.697Z,101452.56
2023-02-11T10:46:03.971Z,101421.63
2023-02-11T10:49:37.451Z,101454.28
2023-02-11T10:52:42.088Z,101450.84
2023-02-11T10:55:58.353Z,101398.09
2023-02-11T10:59:19.751Z,101421.13
2023-02-11T11:02:32.729Z,101460.53
2023-02-11T11:05:52.252Z,101463.81
2023-02-11T11:08:56.633Z,101433.78
2023-02-11T11:12:03.750Z,101419.13
2023-02-11T11:15:36.855Z,101338.25
2023-02-11T11:18:50.887Z,101417.81
2023-02-11T11:21:57.541Z,101469.78
2023-02-11T11:25:02.437Z,101453.69
2023-02-11T11:28:07.917Z,101481.94
2023-02-11T11:31:20.306Z,101458.53
2023-02-11T11:34:41.359Z,101449.41
2023-02-11T11:37:46.645Z,101441.78
2023-02-11T11:41:10.231Z,101479.97
2023-02-11T11:44:31.156Z,101486.81
2023-02-11T11:47:57.670Z,101449.97
2023-02-11T11:51:05.983Z,101486.84
2023-02-11T11:54:19.054Z,101493.75
2023-02-11T11:57:31.888Z,101492.50
2023-02-11T12:00:59.938Z,101446.84
2023-02-11T12:04:24.437Z,101492.56
2023-02-11T12:07:37.493Z,101484.88
2023-02-11T12:10:51.677Z,101477.56
2023-02-11T12:14:07.762Z,101456.13
2023-02-11T12:17:23.540Z,101482.16
2023-02-11T12:20:53.226Z,101459.31
2023-02-11T12:24:30.387Z,101471.72
2023-02-11T12:27:45.252Z,101474.06
2023-02-11T12:35:05.399Z,101305.16
2023-02-11T12:38:40.535Z,101421.59
2023-02-11T12:43:14.321Z,101443.34
2023-02-11T12:46:55.859Z,101413.25
2023-02-11T12:50:19.193Z,101445.75
2023-02-11T12:53:51.911Z,101428.59
2023-02-11T12:57:01.771Z,101436.19
2023-02-11T13:00:28.781Z,101420.97
2023-02-11T13:04:01.182Z,101196.19
2023-02-11T13:07:33.315Z,101457.38
2023-02-11T13:10:54.080Z,101391.84
2023-02-11T13:14:23.527Z,101390.88
2023-02-11T13:18:41.199Z,101451.97
2023-02-11T13:21:59.068Z,101332.09
2023-02-11T13:25:26.831Z,101440.50
2023-02-11T13:28:56.863Z,101419.50
2023-02-11T13:32:22.519Z,101422.47
2023-02-11T13:35:38.437Z,101436.50
2023-02-11T13:38:52.440Z,101391.03
2023-02-11T13:42:05.386Z,101446.88
2023-02-11T13:45:37.455Z,101440.63
2023-02-11T13:48:51.005Z,101425.00
2023-02-11T13:51:56.953Z,101409.94
2023-02-11T13:55:28.917Z,101355.59
2023-02-11T13:58:33.165Z,101432.97
2023-02-11T14:01:43.663Z,101434.38
2023-02-11T14:05:25.077Z,101428.88
2023-02-11T14:08:47.844Z,101415.19
2023-02-11T14:12:15.685Z,101426.81
2023-02-11T14:15:22.258Z,101436.91
2023-02-11T14:18:52.769Z,101435.56
2023-02-11T14:22:04.717Z,101341.00
2023-02-11T14:25:23.529Z,101395.47
2023-02-11T14:28:36.605Z,101448.13
2023-02-11T14:31:55.787Z,101408.69
2023-02-11T14:35:11.632Z,101432.81
2023-02-11T14:38:46.678Z,101440.22
2023-02-11T14:41:56.975Z,101411.59
2023-02-11T14:45:12.923Z,101424.03
2023-02-11T14:48:28.740Z,101431.13
2023-02-11T14:51:46.252Z,101365.28
2023-02-11T14:55:01.100Z,101372.38
2023-02-11T14:58:26.306Z,101400.69
2023-02-11T15:01:36.643Z,101403.00
2023-02-11T15:04:44.489Z,101340.63
2023-02-11T15:07:58.223Z,101430.41
2023-02-11T15:11:13.188Z,101424.19
2023-02-11T15:14:29.734Z,101421.91
2023-02-11T15:17:36.510Z,101402.31
2023-02-11T15:20:42.808Z,101410.34
2023-02-11T15:23:57.763Z,101391.47
2023-02-11T15:27:16.438Z,101426.72
2023-02-11T15:30:37.259Z,101415.78
2023-02-11T15:33:43.784Z,101400.72
2023-02-11T15:36:51.391Z,101393.22
2023-02-11T15:40:09.708Z,101407.50
2023-02-11T15:43:14.090Z,101438.44
2023-02-11T15:46:22.775Z,101432.94
2023-02-11T15:49:28.402Z,101364.06
2023-02-11T15:52:34.057Z,101432.16
2023-02-11T15:55:42.463Z,101430.38
2023-02-11T15:58:49.473Z,101382.31
2023-02-11T16:01:55.768Z,101438.84
2023-02-11T16:05:10.875Z,101439.44
2023-02-11T16:08:36.284Z,101423.84
2023-02-11T16:11:49.686Z,101447.22
2023-02-11T16:14:54.071Z,101449.97
2023-02-11T16:18:02.451Z,101429.13
2023-02-11T16:21:16.767Z,101451.84
2023-02-11T16:24:25.832Z,101430.56
2023-02-11T16:27:42.033Z,101433.00
2023-02-11T16:30:46.964Z,101460.34
2023-02-11T16:33:53.153Z,101418.44
2023-02-11T16:36:57.724Z,101406.81
2023-02-11T16:40:01.910Z,101450.75
2023-02-11T16:43:07.997Z,101448.88
2023-02-11T16:46:16.930Z,101452.69
2023-02-11T16:49:32.855Z,101486.59
2023-02-11T16:52:38.326Z,101421.69
2023-02-11T16:55:45.941Z,101442.16
2023-02-11T16:58:50.078Z,101465.94
2023-02-11T17:01:56.080Z,101491.78
2023-02-11T17:05:06.549Z,101451.34
2023-02-11T17:08:13.736Z,101464.88
2023-02-11T17:11:23.676Z,101435.63
2023-02-11T17:14:32.253Z,101496.59
2023-02-11T17:17:39.457Z,101502.75
2023-02-11T17:20:46.923Z,101437.59
2023-02-11T17:23:54.360Z,101507.22
2023-02-11T17:27:01.459Z,101515.66
2023-02-11T17:30:14.629Z,101529.22
2023-02-11T17:33:19.834Z,101521.44
2023-02-11T17:36:32.055Z,101539.84
2023-02-11T17:39:40.788Z,101546.28
2023-02-11T17:42:45.424Z,101538.47
2023-02-11T17:45:52.904Z,101495.91
2023-02-11T17:49:00.468Z,101506.66
2023-02-11T17:52:05.297Z,101533.63
2023-02-11T17:55:09.979Z,101539.66
2023-02-11T17:58:14.148Z,101506.63
2023-02-11T18:01:18.509Z,101530.44
2023-02-11T18:04:22.909Z,101517.91
2023-02-11T18:07:28.090Z,101536.44
2023-02-11T18:10:32.743Z,101520.44
2023-02-11T18:13:37.509Z,101538.59
2023-02-11T18:16:44.460Z,101546.25
2023-02-11T18:19:49.630Z,101553.44
2023-02-11T18:22:53.720Z,101538.84
2023-02-11T18:26:00.737Z,101523.19
2023-02-11T18:29:07.750Z,101562.66
2023-02-11T18:32:12.320Z,101526.38
2023-02-11T18:35:20.938Z,101580.41
2023-02-11T18:38:26.428Z,101586.09
2023-02-11T18:41:30.743Z,101572.53
2023-02-11T18:44:35.177Z,101582.31
2023-02-11T18:47:40.547Z,101578.41
2023-02-11T18:50:57.972Z,101514.19
2023-02-11T18:54:04.911Z,101529.59
2023-02-11T18:57:11.160Z,101588.53
2023-02-11T19:00:16.469Z,101538.81
2023-02-11T19:03:23.949Z,101567.59
2023-02-11T19:06:35.486Z,101583.69
2023-02-11T19:09:48.970Z,101558.19
2023-02-11T19:12:59.905Z,101568.06
2023-02-11T19:16:11.089Z,101583.88
2023-02-11T19:19:19.403Z,101558.53
2023-02-11T19:22:23.963Z,101521.84
2023-02-11T19:25:36.098Z,101577.44
2023-02-11T19:28:40.143Z,101551.31
2023-02-11T19:31:47.335Z,101561.16
2023-02-11T19:34:53.904Z,101568.34
2023-02-11T19:38:00.226Z,101576.16
2023-02-11T19:41:07.121Z,101572.75
2023-02-11T19:44:14.850Z,101568.00
2023-02-11T19:47:23.144Z,101585.78
2023-02-11T19:50:30.166Z,101571.84
2023-02-11T19:53:34.601Z,101610.31
2023-02-11T19:56:38.979Z,101607.06
2023-02-11T19:59:43.413Z,101561.28
2023-02-11T20:02:47.935Z,101607.47
2023-02-11T20:05:53.600Z,101612.50
2023-02-11T20:09:03.566Z,101631.41
2023-02-11T20:12:08.459Z,101544.94
2023-02-11T20:15:12.754Z,101628.56
2023-02-11T20:18:16.678Z,101633.81
2023-02-11T20:21:27.064Z,101646.69
2023-02-11T20:24:31.576Z,101649.94
2023-02-11T20:27:36.122Z,101645.50
2023-02-11T20:30:40.692Z,101641.91
2023-02-11T20:33:46.043Z,101628.69
2023-02-11T20:36:53.578Z,101635.13
2023-02-11T20:39:59.612Z,101611.94
2023-02-11T20:43:04.164Z,101629.47
2023-02-11T20:46:09.565Z,101633.03
2023-02-11T20:49:20.049Z,101651.09
2023-02-11T20:52:24.011Z,101653.66
2023-02-11T20:55:28.391Z,101628.19
2023-02-11T20:58:33.947Z,101643.31
2023-02-11T21:01:47.452Z,101661.84
2023-02-11T21:04:51.834Z,101643.56
2023-02-11T21:07:56.285Z,101642.81
2023-02-11T21:11:00.771Z,101649.72
2023-02-11T21:14:05.272Z,101662.72
2023-02-11T21:17:09.643Z,101638.25
2023-02-11T21:20:14.486Z,101673.34
2023-02-11T21:23:19.260Z,101618.38
2023-02-11T21:26:24.361Z,101658.19
2023-02-11T21:29:28.832Z,101611.38
2023-02-11T21:32:33.257Z,101672.69
2023-02-11T21:35:38.705Z,101674.69
2023-02-11T21:38:43.134Z,101681.19
2023-02-11T21:41:47.612Z,101659.19
2023-02-11T21:44:51.962Z,101688.09
2023-02-11T21:47:56.050Z,101665.69
2023-02-11T21:51:01.842Z,101698.88
2023-02-11T21:54:06.411Z,101632.94
2023-02-11T21:57:12.214Z,101656.84
2023-02-11T22:00:17.480Z,101621.19
2023-02-11T22:03:21.564Z,101711.06
2023-02-11T22:06:28.496Z,101730.59
2023-02-11T22:09:32.784Z,101717.91
2023-02-11T22:12:37.214Z,101727.41
2023-02-11T22:15:41.279Z,101728.44
2023-02-11T22:18:47.260Z,101729.19
2023-02-11T22:21:51.679Z,101728.16
2023-02-11T22:24:57.723Z,101742.47
2023-02-11T22:28:02.208Z,101700.75
2023-02-11T22:31:06.839Z,101758.91
2023-02-11T22:34:11.336Z,101768.66
2023-02-11T22:37:15.925Z,101773.28
2023-02-11T22:40:20.623Z,101775.19
2023-02-11T22:43:25.060Z,101757.38
2023-02-11T22:46:29.522Z,101792.69
2023-02-11T22:49:37.389Z,101797.88
2023-02-11T22:52:41.622Z,101807.22
2023-02-11T22:55:48.220Z,101812.13
2023-02-11T22:58:54.104Z,101807.94
2023-02-11T23:01:58.469Z,101801.38
2023-02-11T23:05:11.678Z,101778.00
2023-02-11T23:08:19.981Z,101767.34
2023-02-11T23:11:28.595Z,101819.63
2023-02-11T23:14:32.793Z,101800.16
2023-02-11T23:17:37.440Z,101816.88
2023-02-11T23:20:44.624Z,101806.72
2023-02-11T23:23:50.220Z,101799.41
2023-02-11T23:26:54.679Z,101772.41
2023-02-11T23:29:59.048Z,101794.69
2023-02-11T23:33:03.558Z,101796.19
2023-02-11T23:36:08.634Z,101790.50
2023-02-11T23:39:18.844Z,101771.34
2023-02-11T23:42:25.889Z,101808.09
2023-02-11T23:45:39.557Z,101817.19
2023-02-11T23:48:43.841Z,101829.66
2023-02-11T23:51:48.252Z,101835.34
2023-02-11T23:54:52.285Z,101833.75
2023-02-11T23:57:56.483Z,101844.50
